createdAt,value
2018-03-01T00:03:33.530Z,0
2018-03-01T00:13:33.044Z,0
2018-03-01T00:23:31.695Z,0
2018-03-01T00:33:31.084Z,0.1
2018-03-01T00:43:30.353Z,0
2018-03-01T00:53:30.111Z,0.1
2018-03-01T01:03:28.498Z,0
2018-03-01T01:13:27.901Z,-0.1
2018-03-01T01:23:27.109Z,-0.1
2018-03-01T01:33:26.530Z,-0.1
2018-03-01T01:43:25.847Z,-0.3
2018-03-01T01:53:25.138Z,-0.6
2018-03-01T02:03:24.042Z,-0.8
2018-03-01T02:13:23.100Z,-1.3
2018-03-01T02:23:22.125Z,-1.5
2018-03-01T02:33:21.546Z,-1.9
2018-03-01T02:43:21.503Z,-1.9
2018-03-01T02:53:20.247Z,-2.1
2018-03-01T03:03:19.287Z,-2.4
2018-03-01T03:13:18.333Z,-2.5
2018-03-01T03:23:17.375Z,-2.5
2018-03-01T03:33:16.783Z,-2.8
2018-03-01T03:43:16.157Z,-2.7
2018-03-01T03:53:15.463Z,-2.4
2018-03-01T04:03:14.845Z,-2.6
2018-03-01T04:13:14.034Z,-2.8
2018-03-01T04:23:12.797Z,-3
2018-03-01T04:33:12.084Z,-2.9
2018-03-01T04:43:11.020Z,-2.9
2018-03-01T04:53:10.406Z,-2.9
2018-03-01T05:03:10.228Z,-2.8
2018-03-01T05:13:08.835Z,-2.6
2018-03-01T05:23:08.030Z,-5.1
2018-03-01T05:33:07.147Z,-8.4
2018-03-01T05:43:06.354Z,-8.6
2018-03-01T05:53:05.748Z,-7.8
2018-03-01T06:03:04.576Z,-7.3
2018-03-01T06:13:03.858Z,-5.9
2018-03-01T06:23:03.090Z,-4.4
2018-03-01T06:33:02.142Z,-3.9
2018-03-01T06:43:01.721Z,-2.3
2018-03-01T06:53:01.175Z,-2.1
2018-03-01T07:03:00.084Z,-1.8
2018-03-01T07:12:59.010Z,0.9
2018-03-01T07:22:58.511Z,2.6
2018-03-01T07:32:58.026Z,5.3
2018-03-01T07:42:56.459Z,6.4
2018-03-01T07:52:55.802Z,8.2
2018-03-01T08:02:55.811Z,9.1
2018-03-01T08:12:54.112Z,9.6
2018-03-01T08:22:53.999Z,10.4
2018-03-01T08:32:53.018Z,10.5
2018-03-01T08:42:52.070Z,10.7
2018-03-01T08:52:51.224Z,9.8
2018-03-01T09:02:50.317Z,9.1
2018-03-01T09:12:49.977Z,7.8
2018-03-01T09:22:48.527Z,8.6
2018-03-01T09:32:48.198Z,8.2
2018-03-01T09:42:47.669Z,7.9
2018-03-01T09:52:46.233Z,6.9
2018-03-01T10:02:46.278Z,6.8
2018-03-01T10:12:44.712Z,5.6
2018-03-01T10:22:44.377Z,3.9
2018-03-01T10:32:42.988Z,4.2
2018-03-01T10:42:42.724Z,4.1
2018-03-01T10:52:41.360Z,3.4
2018-03-01T11:02:41.134Z,3.6
2018-03-01T11:12:40.536Z,2.5
2018-03-01T11:22:39.000Z,2.3
2018-03-01T11:53:51.052Z,1.8
2018-03-01T12:02:35.811Z,2.3
2018-03-01T12:12:34.906Z,2.4
2018-03-01T12:22:34.301Z,2.8
2018-03-01T12:32:33.614Z,2.7
2018-03-01T12:42:32.669Z,2.6
2018-03-01T12:52:32.069Z,2.2
2018-03-01T13:02:30.902Z,1.8
2018-03-01T13:12:30.124Z,1.5
2018-03-01T13:22:29.446Z,1.6
2018-03-01T13:32:28.822Z,1.3
2018-03-01T13:42:28.038Z,1.1
2018-03-01T13:52:27.220Z,1.4
2018-03-01T14:02:26.589Z,1.3
2018-03-01T14:12:25.592Z,1.8
2018-03-01T14:22:25.072Z,1.9
2018-03-01T14:32:23.715Z,2.3
2018-03-01T14:42:23.311Z,1.8
2018-03-01T14:52:22.501Z,1.8
2018-03-01T15:02:21.346Z,1.3
2018-03-01T15:12:20.596Z,1.5
2018-03-01T15:22:20.237Z,1.6
2018-03-01T15:32:19.441Z,1.6
2018-03-01T15:42:18.421Z,1.6
2018-03-01T15:52:17.675Z,1.7
2018-03-01T16:02:17.032Z,1.4
2018-03-01T16:12:16.318Z,1.1
2018-03-01T16:22:15.588Z,0.8
2018-03-01T16:32:14.695Z,0.9
2018-03-01T16:42:13.416Z,1.1
2018-03-01T16:52:12.988Z,1.5
2018-03-01T17:02:12.009Z,2.9
2018-03-01T17:12:10.958Z,3.1
2018-03-01T17:22:10.584Z,3.1
2018-03-01T17:32:09.685Z,2.9
2018-03-01T17:42:08.650Z,2.8
2018-03-01T17:52:07.822Z,2.9
2018-03-01T18:02:07.318Z,2.8
2018-03-01T18:12:06.388Z,2.9
2018-03-01T18:22:05.586Z,2.8
2018-03-01T18:32:04.926Z,2.9
2018-03-01T18:42:03.841Z,2.9
2018-03-01T18:52:03.378Z,3
2018-03-01T19:02:02.287Z,3.1
2018-03-01T19:12:01.669Z,3
2018-03-01T19:22:00.500Z,3.3
2018-03-01T19:31:59.992Z,3.4
2018-03-01T19:41:59.063Z,3.6
2018-03-01T19:51:58.834Z,3.7
2018-03-01T20:01:57.890Z,3.6
2018-03-01T20:11:56.891Z,3.6
2018-03-01T20:21:55.816Z,3.7
2018-03-01T20:31:55.070Z,3.7
2018-03-01T20:41:54.845Z,3.6
2018-03-01T20:51:53.648Z,3.4
2018-03-01T21:01:52.602Z,3.6
2018-03-01T21:11:52.268Z,3.8
2018-03-01T21:21:51.468Z,4
2018-03-01T21:31:50.588Z,4.2
2018-03-01T21:41:49.462Z,4.3
2018-03-01T21:51:49.223Z,4.5
2018-03-01T22:01:48.080Z,4.6
2018-03-01T22:11:47.124Z,4.6
2018-03-01T22:21:46.217Z,4.7
2018-03-01T22:31:45.436Z,4.7
2018-03-01T22:41:45.481Z,4.8
2018-03-01T22:51:43.890Z,4.8
2018-03-01T23:01:43.347Z,4.8
2018-03-01T23:11:42.305Z,4.8
2018-03-01T23:21:41.812Z,4.8
2018-03-01T23:31:40.883Z,4.6
2018-03-01T23:41:40.171Z,4.5
2018-03-01T23:51:39.845Z,4.4
